Ana Sayfa
METAR-TAF:

METAR-TAF

Havaalanları :

Alice Springs, Avustralya

Enlem: 23-48S, Boylam: 133-53E, yükseklik: 545 m

Güncel hava durumu gözlemi

Rapor saat 17:30 UTC de 41 dakika önce yapıldı.
Sakin rüzgar
Sıcaklık 25°C
Nem 26%
Basınç 1012 hPa
Görüş mesafesi 10 km veya daha fazla

METAR: YBAS 101730Z AUTO 00000KT 9999 // NCD 25/04 Q1012 RF00.0/000.0

Saat: 03:41 (18:11 UTC)

Tahmin

Rapor saat 17:17 UTC de 54 dakika önce yapıldı.
Ayın 10'si saat 18 UTC'den ayın 11'si saat 18 UTC'ye kadar geçerli Tahmin
Rüzgar değişken yönden 3 kt
Görüş mesafesi 10 km veya daha fazla
1500 m altında bulut yok ve kümülonimbus yok
Ayın 10'si saat 2200 UTC'den
Rüzgar doğu/güneydoğudan 8 kt
Görüş mesafesi 10 km veya daha fazla
1500 m altında bulut yok ve kümülonimbus yok

TAF: YBAS 101717Z 1018/1118 VRB03KT CAVOK FM102200 11008KT CAVOK

4.000'den fazla havaalanı için hava durumu gözlemleri ve tahminleri (METAR ve TAF raporları).

Kullanılabilir istasyonlar harita üzerinde sarı ve kırmızı noktalarla gösterilir.

İstasyonun adını görmek için fareyi noktanın üzerinde gezdirin.

Sonrasında hava gözlem ve tahminlerini görmek için tıklayın.

Haritayı değiştirmek için: yaklaştırmak için siyah artı işaretli yeşil düğmeye ve uzaklaştırmak için de eksi işaretli düğmeye hızla tıklayın; bitişik haritalar için yeşil okları kullanın.


METAR-TAF: